Terminal Aerodrome Forecast
Issued by NWS Cleveland, OH

Home | Current Version | Previous Version | Text Only | Print | Product List | Glossary Off
Versions: 1 2 3 4 5 6 7 8 9 10 11 12 13 14 15 16 17 18 19 20 21 22 23

000
FTUS41 KCLE 220500
TAFYNG
TAF
KYNG 220533Z 2206/2306 23008KT P6SM VCSH SCT050 OVC110
      TEMPO 2206/2209 5SM -SHRA BKN040
     FM220900 24008KT P6SM -SHRA SCT040 OVC080
      TEMPO 2209/2213 4SM -SHRA BKN015
     FM221300 26012KT 5SM -SHRA BR BKN008 OVC025
     FM221700 30014G20KT P6SM BKN015 OVC025
     FM221900 31016G24KT P6SM BKN025
     FM230100 31010KT P6SM VCSH BKN030=

USA.gov is the U.S. government's official web portal to all federal, state and local government web resources and services.